sensor_id;sensor_type;location;lat;lon;timestamp;temperature;humidity
3660;DHT22;1846;51.482;7.224;2023-03-01T00:00:54;0.90;99.90
3660;DHT22;1846;51.482;7.224;2023-03-01T00:03:21;0.80;99.90
3660;DHT22;1846;51.482;7.224;2023-03-01T00:05:48;0.80;99.90
3660;DHT22;1846;51.482;7.224;2023-03-01T00:08:14;0.80;99.90
3660;DHT22;1846;51.482;7.224;2023-03-01T00:10:41;0.80;99.90
3660;DHT22;1846;51.482;7.224;2023-03-01T00:13:08;0.80;99.90
3660;DHT22;1846;51.482;7.224;2023-03-01T00:15:39;0.70;99.90
3660;DHT22;1846;51.482;7.224;2023-03-01T00:18:06;0.70;99.90
3660;DHT22;1846;51.482;7.224;2023-03-01T00:20:33;0.70;99.90
3660;DHT22;1846;51.482;7.224;2023-03-01T00:23:00;0.70;99.90
3660;DHT22;1846;51.482;7.224;2023-03-01T00:25:27;0.60;99.90
3660;DHT22;1846;51.482;7.224;2023-03-01T00:27:54;0.50;99.90
3660;DHT22;1846;51.482;7.224;2023-03-01T00:30:21;0.50;99.90
3660;DHT22;1846;51.482;7.224;2023-03-01T00:32:49;0.50;99.90
3660;DHT22;1846;51.482;7.224;2023-03-01T00:35:16;0.50;99.90
3660;DHT22;1846;51.482;7.224;2023-03-01T00:37:42;0.60;99.90
3660;DHT22;1846;51.482;7.224;2023-03-01T00:40:10;0.50;99.90
3660;DHT22;1846;51.482;7.224;2023-03-01T00:42:37;0.40;99.90
3660;DHT22;1846;51.482;7.224;2023-03-01T00:45:05;0.40;99.90
3660;DHT22;1846;51.482;7.224;2023-03-01T00:47:33;0.40;99.90
3660;DHT22;1846;51.482;7.224;2023-03-01T00:50:01;0.40;99.90
3660;DHT22;1846;51.482;7.224;2023-03-01T00:52:28;0.40;99.90
3660;DHT22;1846;51.482;7.224;2023-03-01T00:54:54;0.40;99.90
3660;DHT22;1846;51.482;7.224;2023-03-01T00:57:23;0.30;99.90
3660;DHT22;1846;51.482;7.224;2023-03-01T00:59:50;0.40;99.90
3660;DHT22;1846;51.482;7.224;2023-03-01T01:02:17;0.30;99.90
3660;DHT22;1846;51.482;7.224;2023-03-01T01:04:45;0.20;99.90
3660;DHT22;1846;51.482;7.224;2023-03-01T01:07:13;0.30;99.90
3660;DHT22;1846;51.482;7.224;2023-03-01T01:09:41;0.30;99.90
3660;DHT22;1846;51.482;7.224;2023-03-01T01:12:08;0.20;99.90
3660;DHT22;1846;51.482;7.224;2023-03-01T01:14:35;0.20;99.90
3660;DHT22;1846;51.482;7.224;2023-03-01T01:17:01;0.20;99.90
3660;DHT22;1846;51.482;7.224;2023-03-01T01:19:29;0.20;99.90
3660;DHT22;1846;51.482;7.224;2023-03-01T01:21:56;0.20;99.90
3660;DHT22;1846;51.482;7.224;2023-03-01T01:24:24;0.20;99.90
3660;DHT22;1846;51.482;7.224;2023-03-01T01:26:50;0.30;99.90
3660;DHT22;1846;51.482;7.224;2023-03-01T01:29:17;0.20;99.90
3660;DHT22;1846;51.482;7.224;2023-03-01T01:31:44;0.20;99.90
3660;DHT22;1846;51.482;7.224;2023-03-01T01:34:14;0.20;99.90
3660;DHT22;1846;51.482;7.224;2023-03-01T01:36:41;0.10;99.90
3660;DHT22;1846;51.482;7.224;2023-03-01T01:39:08;0.10;99.90
3660;DHT22;1846;51.482;7.224;2023-03-01T01:41:40;0.10;99.90
3660;DHT22;1846;51.482;7.224;2023-03-01T01:44:14;0.10;99.90
3660;DHT22;1846;51.482;7.224;2023-03-01T01:46:44;0.10;99.90
3660;DHT22;1846;51.482;7.224;2023-03-01T01:49:19;0.10;99.90
3660;DHT22;1846;51.482;7.224;2023-03-01T01:51:49;0.10;99.90
3660;DHT22;1846;51.482;7.224;2023-03-01T01:54:21;0.00;99.90
3660;DHT22;1846;51.482;7.224;2023-03-01T01:56:54;0.00;99.90
3660;DHT22;1846;51.482;7.224;2023-03-01T01:59:23;0.20;99.90
3660;DHT22;1846;51.482;7.224;2023-03-01T02:01:51;0.30;99.90
3660;DHT22;1846;51.482;7.224;2023-03-01T02:04:18;0.30;99.90
3660;DHT22;1846;51.482;7.224;2023-03-01T02:06:49;0.30;99.90
3660;DHT22;1846;51.482;7.224;2023-03-01T02:09:20;0.10;99.90
3660;DHT22;1846;51.482;7.224;2023-03-01T02:11:49;0.10;99.90
3660;DHT22;1846;51.482;7.224;2023-03-01T02:14:17;0.10;99.90
3660;DHT22;1846;51.482;7.224;2023-03-01T02:16:44;0.00;99.90
3660;DHT22;1846;51.482;7.224;2023-03-01T02:19:18;0.00;99.90
3660;DHT22;1846;51.482;7.224;2023-03-01T02:21:52;-0.10;99.90
3660;DHT22;1846;51.482;7.224;2023-03-01T02:24:28;-0.10;99.90
3660;DHT22;1846;51.482;7.224;2023-03-01T02:27:00;-0.20;99.90
3660;DHT22;1846;51.482;7.224;2023-03-01T02:29:29;-0.20;99.90
3660;DHT22;1846;51.482;7.224;2023-03-01T02:31:58;-0.20;99.90
3660;DHT22;1846;51.482;7.224;2023-03-01T02:34:27;-0.20;99.90
3660;DHT22;1846;51.482;7.224;2023-03-01T02:36:57;-0.10;99.90
3660;DHT22;1846;51.482;7.224;2023-03-01T02:39:28;-0.20;99.90
3660;DHT22;1846;51.482;7.224;2023-03-01T02:41:56;-0.20;99.90
3660;DHT22;1846;51.482;7.224;2023-03-01T02:44:24;-0.30;99.90
3660;DHT22;1846;51.482;7.224;2023-03-01T02:46:53;-0.30;99.90
3660;DHT22;1846;51.482;7.224;2023-03-01T02:49:24;-0.30;99.90
3660;DHT22;1846;51.482;7.224;2023-03-01T02:52:22;-0.40;99.90
3660;DHT22;1846;51.482;7.224;2023-03-01T02:54:58;-0.40;99.90
3660;DHT22;1846;51.482;7.224;2023-03-01T02:57:29;-0.40;99.90
3660;DHT22;1846;51.482;7.224;2023-03-01T02:59:59;-0.40;99.90
3660;DHT22;1846;51.482;7.224;2023-03-01T03:02:34;-0.50;99.90
3660;DHT22;1846;51.482;7.224;2023-03-01T03:05:06;-0.50;99.90
3660;DHT22;1846;51.482;7.224;2023-03-01T03:07:34;-0.50;99.90
3660;DHT22;1846;51.482;7.224;2023-03-01T03:10:03;-0.40;99.90
3660;DHT22;1846;51.482;7.224;2023-03-01T03:12:30;-0.50;99.90
3660;DHT22;1846;51.482;7.224;2023-03-01T03:14:57;-0.50;99.90
3660;DHT22;1846;51.482;7.224;2023-03-01T03:17:24;-0.50;99.90
3660;DHT22;1846;51.482;7.224;2023-03-01T03:19:52;-0.60;99.90
3660;DHT22;1846;51.482;7.224;2023-03-01T03:22:18;-0.60;99.90
3660;DHT22;1846;51.482;7.224;2023-03-01T03:24:45;-0.60;99.90
3660;DHT22;1846;51.482;7.224;2023-03-01T03:27:12;-0.70;99.90
3660;DHT22;1846;51.482;7.224;2023-03-01T03:29:39;-0.70;99.90
3660;DHT22;1846;51.482;7.224;2023-03-01T03:32:06;-0.70;99.90
3660;DHT22;1846;51.482;7.224;2023-03-01T03:34:33;-0.70;99.90
3660;DHT22;1846;51.482;7.224;2023-03-01T03:37:01;-0.70;99.90
3660;DHT22;1846;51.482;7.224;2023-03-01T03:39:28;-0.70;99.90
3660;DHT22;1846;51.482;7.224;2023-03-01T03:42:00;-0.60;99.90
3660;DHT22;1846;51.482;7.224;2023-03-01T03:44:27;-0.80;99.90
3660;DHT22;1846;51.482;7.224;2023-03-01T03:46:54;-0.80;99.90
3660;DHT22;1846;51.482;7.224;2023-03-01T03:49:21;-0.80;99.90
3660;DHT22;1846;51.482;7.224;2023-03-01T03:51:48;-0.80;99.90
3660;DHT22;1846;51.482;7.224;2023-03-01T03:54:16;-0.70;99.90
3660;DHT22;1846;51.482;7.224;2023-03-01T03:56:43;-0.70;99.90
3660;DHT22;1846;51.482;7.224;2023-03-01T03:59:10;-0.70;99.90
3660;DHT22;1846;51.482;7.224;2023-03-01T04:01:37;-0.80;99.90
3660;DHT22;1846;51.482;7.224;2023-03-01T04:04:04;-0.80;99.90
3660;DHT22;1846;51.482;7.224;2023-03-01T04:06:33;-0.80;99.90
3660;DHT22;1846;51.482;7.224;2023-03-01T04:09:00;-0.90;99.90
3660;DHT22;1846;51.482;7.224;2023-03-01T04:11:29;-0.80;99.90
3660;DHT22;1846;51.482;7.224;2023-03-01T04:13:58;-0.90;99.90
3660;DHT22;1846;51.482;7.224;2023-03-01T04:16:25;-0.90;99.90
3660;DHT22;1846;51.482;7.224;2023-03-01T04:18:52;-0.90;99.90
3660;DHT22;1846;51.482;7.224;2023-03-01T04:21:20;-0.90;99.90
3660;DHT22;1846;51.482;7.224;2023-03-01T04:23:47;-1.00;1.00
3660;DHT22;1846;51.482;7.224;2023-03-01T04:26:18;-1.00;1.00
3660;DHT22;1846;51.482;7.224;2023-03-01T04:28:49;-1.00;1.00
3660;DHT22;1846;51.482;7.224;2023-03-01T04:31:18;-1.00;1.00
3660;DHT22;1846;51.482;7.224;2023-03-01T04:33:48;-1.10;1.00
3660;DHT22;1846;51.482;7.224;2023-03-01T04:36:18;-1.10;1.00
3660;DHT22;1846;51.482;7.224;2023-03-01T04:38:46;-1.10;1.00
3660;DHT22;1846;51.482;7.224;2023-03-01T04:41:14;-1.10;1.00
3660;DHT22;1846;51.482;7.224;2023-03-01T04:43:42;-1.10;1.00
3660;DHT22;1846;51.482;7.224;2023-03-01T04:46:13;-1.00;1.00
3660;DHT22;1846;51.482;7.224;2023-03-01T04:48:41;-1.00;99.90
3660;DHT22;1846;51.482;7.224;2023-03-01T04:51:08;-1.00;99.90
3660;DHT22;1846;51.482;7.224;2023-03-01T04:53:39;-1.00;1.00
3660;DHT22;1846;51.482;7.224;2023-03-01T04:56:06;-1.00;99.90
3660;DHT22;1846;51.482;7.224;2023-03-01T04:58:33;-1.10;99.90
3660;DHT22;1846;51.482;7.224;2023-03-01T05:01:00;-1.10;1.00
3660;DHT22;1846;51.482;7.224;2023-03-01T05:03:28;-1.10;1.00
3660;DHT22;1846;51.482;7.224;2023-03-01T05:05:58;-1.10;1.00
3660;DHT22;1846;51.482;7.224;2023-03-01T05:08:26;-1.00;1.00
3660;DHT22;1846;51.482;7.224;2023-03-01T05:10:55;-0.90;1.00
3660;DHT22;1846;51.482;7.224;2023-03-01T05:13:22;-1.00;1.00
3660;DHT22;1846;51.482;7.224;2023-03-01T05:15:54;-1.10;1.00
3660;DHT22;1846;51.482;7.224;2023-03-01T05:18:21;-1.10;1.00
3660;DHT22;1846;51.482;7.224;2023-03-01T05:20:52;-1.20;1.00
3660;DHT22;1846;51.482;7.224;2023-03-01T05:23:22;-1.20;1.00
3660;DHT22;1846;51.482;7.224;2023-03-01T05:25:49;-1.20;1.00
3660;DHT22;1846;51.482;7.224;2023-03-01T05:28:18;-1.20;1.00
3660;DHT22;1846;51.482;7.224;2023-03-01T05:30:46;-1.30;1.00
3660;DHT22;1846;51.482;7.224;2023-03-01T05:33:13;-1.30;1.00
3660;DHT22;1846;51.482;7.224;2023-03-01T05:35:40;-1.30;1.00
3660;DHT22;1846;51.482;7.224;2023-03-01T05:38:09;-1.30;1.00
3660;DHT22;1846;51.482;7.224;2023-03-01T05:40:38;-1.30;1.00
3660;DHT22;1846;51.482;7.224;2023-03-01T05:43:06;-1.30;1.00
3660;DHT22;1846;51.482;7.224;2023-03-01T05:45:33;-1.30;1.00
3660;DHT22;1846;51.482;7.224;2023-03-01T05:48:01;-1.40;1.00
3660;DHT22;1846;51.482;7.224;2023-03-01T05:50:33;-1.40;1.00
3660;DHT22;1846;51.482;7.224;2023-03-01T05:53:02;-1.40;1.00
3660;DHT22;1846;51.482;7.224;2023-03-01T05:55:35;-1.30;1.00
3660;DHT22;1846;51.482;7.224;2023-03-01T05:58:03;-1.40;1.00
3660;DHT22;1846;51.482;7.224;2023-03-01T06:00:31;-1.40;1.00
3660;DHT22;1846;51.482;7.224;2023-03-01T06:02:59;-1.40;1.00
3660;DHT22;1846;51.482;7.224;2023-03-01T06:05:27;-1.40;4.30
3660;DHT22;1846;51.482;7.224;2023-03-01T06:07:54;-1.50;9.40
3660;DHT22;1846;51.482;7.224;2023-03-01T06:10:22;-1.50;1.00
3660;DHT22;1846;51.482;7.224;2023-03-01T06:12:50;-1.40;5.80
3660;DHT22;1846;51.482;7.224;2023-03-01T06:15:18;-1.40;1.00
3660;DHT22;1846;51.482;7.224;2023-03-01T06:17:46;-1.40;1.00
3660;DHT22;1846;51.482;7.224;2023-03-01T06:20:17;-1.40;1.00
3660;DHT22;1846;51.482;7.224;2023-03-01T06:28:24;-1.30;2.90
3660;DHT22;1846;51.482;7.224;2023-03-01T06:30:52;-1.40;1.00
3660;DHT22;1846;51.482;7.224;2023-03-01T06:33:19;-1.40;1.00
3660;DHT22;1846;51.482;7.224;2023-03-01T06:35:48;-1.40;1.00
3660;DHT22;1846;51.482;7.224;2023-03-01T06:38:15;-1.30;1.00
3660;DHT22;1846;51.482;7.224;2023-03-01T06:40:44;-1.40;1.00
3660;DHT22;1846;51.482;7.224;2023-03-01T06:43:11;-1.40;45.00
3660;DHT22;1846;51.482;7.224;2023-03-01T06:45:39;-1.50;76.10
3660;DHT22;1846;51.482;7.224;2023-03-01T06:48:07;-1.50;99.90
3660;DHT22;1846;51.482;7.224;2023-03-01T06:50:34;-1.50;99.90
3660;DHT22;1846;51.482;7.224;2023-03-01T06:53:02;-1.40;99.90
3660;DHT22;1846;51.482;7.224;2023-03-01T06:55:29;-1.40;99.90
3660;DHT22;1846;51.482;7.224;2023-03-01T07:03:49;-1.30;66.90
3660;DHT22;1846;51.482;7.224;2023-03-01T07:06:15;-1.30;45.30
3660;DHT22;1846;51.482;7.224;2023-03-01T07:08:43;-1.30;64.00
3660;DHT22;1846;51.482;7.224;2023-03-01T07:11:09;-1.30;48.70
3660;DHT22;1846;51.482;7.224;2023-03-01T07:13:38;-1.30;16.90
3660;DHT22;1846;51.482;7.224;2023-03-01T07:16:06;-1.20;21.10
3660;DHT22;1846;51.482;7.224;2023-03-01T07:18:36;-1.30;19.50
3660;DHT22;1846;51.482;7.224;2023-03-01T07:21:06;-1.20;99.90
3660;DHT22;1846;51.482;7.224;2023-03-01T07:26:08;-1.10;68.30
3660;DHT22;1846;51.482;7.224;2023-03-01T07:32:13;-0.90;69.10
3660;DHT22;1846;51.482;7.224;2023-03-01T07:34:40;-0.90;1.00
3660;DHT22;1846;51.482;7.224;2023-03-01T07:37:08;-0.70;1.00
3660;DHT22;1846;51.482;7.224;2023-03-01T07:39:35;-0.70;1.00
3660;DHT22;1846;51.482;7.224;2023-03-01T07:42:02;-0.70;1.00
3660;DHT22;1846;51.482;7.224;2023-03-01T07:44:29;-0.60;1.00
3660;DHT22;1846;51.482;7.224;2023-03-01T07:47:03;-0.70;1.00
3660;DHT22;1846;51.482;7.224;2023-03-01T07:49:30;-0.60;1.00
3660;DHT22;1846;51.482;7.224;2023-03-01T07:51:56;-0.60;1.00
3660;DHT22;1846;51.482;7.224;2023-03-01T07:54:27;-0.60;1.00
3660;DHT22;1846;51.482;7.224;2023-03-01T07:57:03;-0.50;1.00
3660;DHT22;1846;51.482;7.224;2023-03-01T07:59:37;-0.30;1.00
3660;DHT22;1846;51.482;7.224;2023-03-01T08:02:05;-0.20;99.90
3660;DHT22;1846;51.482;7.224;2023-03-01T08:07:16;-0.10;99.90
3660;DHT22;1846;51.482;7.224;2023-03-01T08:09:48;0.00;99.90
3660;DHT22;1846;51.482;7.224;2023-03-01T08:12:17;0.20;99.90
3660;DHT22;1846;51.482;7.224;2023-03-01T08:14:45;0.30;99.90
3660;DHT22;1846;51.482;7.224;2023-03-01T08:17:16;0.30;99.90
3660;DHT22;1846;51.482;7.224;2023-03-01T08:19:43;0.30;99.90
3660;DHT22;1846;51.482;7.224;2023-03-01T08:25:27;0.40;99.90
3660;DHT22;1846;51.482;7.224;2023-03-01T08:27:57;0.50;99.90
3660;DHT22;1846;51.482;7.224;2023-03-01T08:30:27;0.60;99.90
3660;DHT22;1846;51.482;7.224;2023-03-01T08:32:56;0.70;99.90
3660;DHT22;1846;51.482;7.224;2023-03-01T08:35:23;0.70;99.90
3660;DHT22;1846;51.482;7.224;2023-03-01T08:37:53;0.80;99.90
3660;DHT22;1846;51.482;7.224;2023-03-01T08:40:20;0.90;99.90
3660;DHT22;1846;51.482;7.224;2023-03-01T08:42:48;1.10;99.90
3660;DHT22;1846;51.482;7.224;2023-03-01T08:45:17;1.10;99.90
3660;DHT22;1846;51.482;7.224;2023-03-01T08:47:44;1.30;99.90
3660;DHT22;1846;51.482;7.224;2023-03-01T08:50:11;1.30;99.90
3660;DHT22;1846;51.482;7.224;2023-03-01T08:52:38;1.40;99.90
3660;DHT22;1846;51.482;7.224;2023-03-01T08:55:06;1.50;99.90
3660;DHT22;1846;51.482;7.224;2023-03-01T08:57:34;1.50;99.90
3660;DHT22;1846;51.482;7.224;2023-03-01T09:00:02;1.60;99.90
3660;DHT22;1846;51.482;7.224;2023-03-01T09:02:34;1.60;94.70
3660;DHT22;1846;51.482;7.224;2023-03-01T09:05:01;1.60;94.80
3660;DHT22;1846;51.482;7.224;2023-03-01T09:07:28;1.60;90.80
3660;DHT22;1846;51.482;7.224;2023-03-01T09:09:57;1.70;86.00
3660;DHT22;1846;51.482;7.224;2023-03-01T09:12:24;1.80;81.20
3660;DHT22;1846;51.482;7.224;2023-03-01T09:14:54;1.80;79.10
3660;DHT22;1846;51.482;7.224;2023-03-01T09:17:28;1.90;70.50
3660;DHT22;1846;51.482;7.224;2023-03-01T09:19:55;1.90;63.80
3660;DHT22;1846;51.482;7.224;2023-03-01T09:22:21;2.00;62.60
3660;DHT22;1846;51.482;7.224;2023-03-01T09:24:48;2.10;66.00
3660;DHT22;1846;51.482;7.224;2023-03-01T09:27:15;2.20;65.80
3660;DHT22;1846;51.482;7.224;2023-03-01T09:29:44;2.30;73.80
3660;DHT22;1846;51.482;7.224;2023-03-01T09:32:11;2.60;54.80
3660;DHT22;1846;51.482;7.224;2023-03-01T09:34:39;2.60;39.20
3660;DHT22;1846;51.482;7.224;2023-03-01T09:37:20;2.70;42.20
3660;DHT22;1846;51.482;7.224;2023-03-01T09:39:47;2.90;37.50
3660;DHT22;1846;51.482;7.224;2023-03-01T09:42:14;2.90;30.00
3660;DHT22;1846;51.482;7.224;2023-03-01T09:44:45;3.00;30.20
3660;DHT22;1846;51.482;7.224;2023-03-01T09:52:39;3.10;22.10
3660;DHT22;1846;51.482;7.224;2023-03-01T09:55:15;3.70;28.30
3660;DHT22;1846;51.482;7.224;2023-03-01T09:57:49;4.70;20.00
3660;DHT22;1846;51.482;7.224;2023-03-01T10:00:30;5.40;20.60
3660;DHT22;1846;51.482;7.224;2023-03-01T10:06:19;8.40;27.30
3660;DHT22;1846;51.482;7.224;2023-03-01T10:16:43;11.80;38.30
3660;DHT22;1846;51.482;7.224;2023-03-01T10:19:17;11.60;36.20
3660;DHT22;1846;51.482;7.224;2023-03-01T10:21:49;11.90;37.10
3660;DHT22;1846;51.482;7.224;2023-03-01T10:24:19;12.00;37.60
3660;DHT22;1846;51.482;7.224;2023-03-01T10:26:55;12.00;37.60
3660;DHT22;1846;51.482;7.224;2023-03-01T10:29:26;12.40;39.20
3660;DHT22;1846;51.482;7.224;2023-03-01T10:31:58;13.00;44.30
3660;DHT22;1846;51.482;7.224;2023-03-01T10:34:29;13.90;51.80
3660;DHT22;1846;51.482;7.224;2023-03-01T10:37:01;14.40;54.30
3660;DHT22;1846;51.482;7.224;2023-03-01T10:39:28;14.30;52.10
3660;DHT22;1846;51.482;7.224;2023-03-01T10:42:01;13.80;48.30
3660;DHT22;1846;51.482;7.224;2023-03-01T10:44:43;13.80;47.80
3660;DHT22;1846;51.482;7.224;2023-03-01T10:47:17;12.10;34.70
3660;DHT22;1846;51.482;7.224;2023-03-01T10:52:28;13.00;39.90
3660;DHT22;1846;51.482;7.224;2023-03-01T10:55:04;13.80;47.60
3660;DHT22;1846;51.482;7.224;2023-03-01T10:57:35;13.60;44.00
3660;DHT22;1846;51.482;7.224;2023-03-01T11:00:21;12.60;46.90
3660;DHT22;1846;51.482;7.224;2023-03-01T11:03:01;11.00;25.50
3660;DHT22;1846;51.482;7.224;2023-03-01T11:05:28;11.10;26.00
3660;DHT22;1846;51.482;7.224;2023-03-01T11:07:57;11.70;29.80
3660;DHT22;1846;51.482;7.224;2023-03-01T11:10:26;11.90;31.40
3660;DHT22;1846;51.482;7.224;2023-03-01T11:12:54;11.70;29.90
3660;DHT22;1846;51.482;7.224;2023-03-01T11:15:31;12.00;31.70
3660;DHT22;1846;51.482;7.224;2023-03-01T11:20:36;11.50;27.90
3660;DHT22;1846;51.482;7.224;2023-03-01T11:23:07;11.00;25.00
3660;DHT22;1846;51.482;7.224;2023-03-01T11:25:39;12.20;33.20
3660;DHT22;1846;51.482;7.224;2023-03-01T11:28:10;12.60;35.70
3660;DHT22;1846;51.482;7.224;2023-03-01T11:30:42;13.30;39.60
3660;DHT22;1846;51.482;7.224;2023-03-01T11:33:15;13.80;42.40
3660;DHT22;1846;51.482;7.224;2023-03-01T11:35:53;14.20;47.50
3660;DHT22;1846;51.482;7.224;2023-03-01T11:38:24;14.30;47.80
3660;DHT22;1846;51.482;7.224;2023-03-01T11:41:25;15.20;54.50
3660;DHT22;1846;51.482;7.224;2023-03-01T11:43:51;16.30;62.80
3660;DHT22;1846;51.482;7.224;2023-03-01T11:46:35;15.60;55.30
3660;DHT22;1846;51.482;7.224;2023-03-01T11:49:24;14.80;48.90
3660;DHT22;1846;51.482;7.224;2023-03-01T11:51:59;13.90;41.60
3660;DHT22;1846;51.482;7.224;2023-03-01T11:54:37;12.90;33.60
3660;DHT22;1846;51.482;7.224;2023-03-01T11:57:13;13.60;41.00
3660;DHT22;1846;51.482;7.224;2023-03-01T12:02:41;14.00;51.50
3660;DHT22;1846;51.482;7.224;2023-03-01T12:05:38;14.90;49.20
3660;DHT22;1846;51.482;7.224;2023-03-01T12:08:13;15.40;53.00
3660;DHT22;1846;51.482;7.224;2023-03-01T12:10:50;15.20;50.20
3660;DHT22;1846;51.482;7.224;2023-03-01T12:13:34;14.30;41.60
3660;DHT22;1846;51.482;7.224;2023-03-01T12:16:30;14.40;43.60
3660;DHT22;1846;51.482;7.224;2023-03-01T12:22:16;14.40;41.20
3660;DHT22;1846;51.482;7.224;2023-03-01T12:24:59;14.40;42.40
3660;DHT22;1846;51.482;7.224;2023-03-01T12:27:39;14.10;41.40
3660;DHT22;1846;51.482;7.224;2023-03-01T12:30:21;13.80;38.30
3660;DHT22;1846;51.482;7.224;2023-03-01T12:33:00;12.50;28.30
3660;DHT22;1846;51.482;7.224;2023-03-01T12:35:51;11.20;20.60
3660;DHT22;1846;51.482;7.224;2023-03-01T12:38:32;10.80;17.90
3660;DHT22;1846;51.482;7.224;2023-03-01T12:44:21;9.20;9.60
3660;DHT22;1846;51.482;7.224;2023-03-01T12:47:05;9.00;8.30
3660;DHT22;1846;51.482;7.224;2023-03-01T12:49:39;8.30;12.10
3660;DHT22;1846;51.482;7.224;2023-03-01T12:52:14;7.90;2.80
3660;DHT22;1846;51.482;7.224;2023-03-01T12:54:42;7.90;2.50
3660;DHT22;1846;51.482;7.224;2023-03-01T12:57:14;8.00;3.40
3660;DHT22;1846;51.482;7.224;2023-03-01T12:59:55;7.90;3.00
3660;DHT22;1846;51.482;7.224;2023-03-01T13:02:31;8.20;4.50
3660;DHT22;1846;51.482;7.224;2023-03-01T13:05:18;7.90;2.70
3660;DHT22;1846;51.482;7.224;2023-03-01T13:07:55;8.00;3.20
3660;DHT22;1846;51.482;7.224;2023-03-01T13:10:29;7.90;2.70
3660;DHT22;1846;51.482;7.224;2023-03-01T13:13:03;7.90;3.10
3660;DHT22;1846;51.482;7.224;2023-03-01T13:15:37;7.80;2.10
3660;DHT22;1846;51.482;7.224;2023-03-01T13:18:35;7.90;2.60
3660;DHT22;1846;51.482;7.224;2023-03-01T13:21:03;7.80;2.10
3660;DHT22;1846;51.482;7.224;2023-03-01T13:23:34;7.90;2.40
3660;DHT22;1846;51.482;7.224;2023-03-01T13:26:08;7.80;2.40
3660;DHT22;1846;51.482;7.224;2023-03-01T13:28:46;7.80;1.70
3660;DHT22;1846;51.482;7.224;2023-03-01T13:34:58;7.60;1.00
3660;DHT22;1846;51.482;7.224;2023-03-01T13:37:43;7.70;1.00
3660;DHT22;1846;51.482;7.224;2023-03-01T13:43:32;8.00;10.40
3660;DHT22;1846;51.482;7.224;2023-03-01T13:46:02;8.00;3.00
3660;DHT22;1846;51.482;7.224;2023-03-01T13:48:34;8.00;3.10
3660;DHT22;1846;51.482;7.224;2023-03-01T13:51:03;8.00;3.40
3660;DHT22;1846;51.482;7.224;2023-03-01T13:53:34;8.20;3.80
3660;DHT22;1846;51.482;7.224;2023-03-01T13:56:06;8.40;5.00
3660;DHT22;1846;51.482;7.224;2023-03-01T13:58:46;8.10;3.40
3660;DHT22;1846;51.482;7.224;2023-03-01T14:01:23;8.00;2.70
3660;DHT22;1846;51.482;7.224;2023-03-01T14:03:50;8.00;2.40
3660;DHT22;1846;51.482;7.224;2023-03-01T14:06:21;8.10;11.00
3660;DHT22;1846;51.482;7.224;2023-03-01T14:08:52;8.30;3.70
3660;DHT22;1846;51.482;7.224;2023-03-01T14:12:03;8.40;4.70
3660;DHT22;1846;51.482;7.224;2023-03-01T14:14:39;8.10;2.90
3660;DHT22;1846;51.482;7.224;2023-03-01T14:20:17;8.00;2.20
3660;DHT22;1846;51.482;7.224;2023-03-01T14:22:46;7.90;1.90
3660;DHT22;1846;51.482;7.224;2023-03-01T14:25:21;8.10;2.40
3660;DHT22;1846;51.482;7.224;2023-03-01T14:27:54;8.10;2.60
3660;DHT22;1846;51.482;7.224;2023-03-01T14:30:24;7.90;1.60
3660;DHT22;1846;51.482;7.224;2023-03-01T14:32:53;7.80;1.00
3660;DHT22;1846;51.482;7.224;2023-03-01T14:35:23;7.60;1.00
3660;DHT22;1846;51.482;7.224;2023-03-01T14:37:51;7.60;1.00
3660;DHT22;1846;51.482;7.224;2023-03-01T14:40:27;7.60;1.00
3660;DHT22;1846;51.482;7.224;2023-03-01T14:42:56;7.50;1.00
3660;DHT22;1846;51.482;7.224;2023-03-01T14:45:25;7.50;1.00
3660;DHT22;1846;51.482;7.224;2023-03-01T14:47:53;7.20;1.00
3660;DHT22;1846;51.482;7.224;2023-03-01T14:50:26;7.20;1.00
3660;DHT22;1846;51.482;7.224;2023-03-01T14:52:57;7.10;1.00
3660;DHT22;1846;51.482;7.224;2023-03-01T14:55:27;7.10;1.00
3660;DHT22;1846;51.482;7.224;2023-03-01T14:57:56;7.10;1.00
3660;DHT22;1846;51.482;7.224;2023-03-01T15:00:26;7.10;1.00
3660;DHT22;1846;51.482;7.224;2023-03-01T15:02:55;7.10;1.00
3660;DHT22;1846;51.482;7.224;2023-03-01T15:05:26;7.00;1.00
3660;DHT22;1846;51.482;7.224;2023-03-01T15:07:57;7.00;1.00
3660;DHT22;1846;51.482;7.224;2023-03-01T15:10:28;7.00;1.00
3660;DHT22;1846;51.482;7.224;2023-03-01T15:12:55;7.00;1.00
3660;DHT22;1846;51.482;7.224;2023-03-01T15:15:35;6.90;1.00
3660;DHT22;1846;51.482;7.224;2023-03-01T15:18:04;6.90;1.00
3660;DHT22;1846;51.482;7.224;2023-03-01T15:20:33;7.00;1.00
3660;DHT22;1846;51.482;7.224;2023-03-01T15:23:12;7.00;1.00
3660;DHT22;1846;51.482;7.224;2023-03-01T15:25:44;7.10;1.00
3660;DHT22;1846;51.482;7.224;2023-03-01T15:28:19;7.10;1.00
3660;DHT22;1846;51.482;7.224;2023-03-01T15:30:52;7.10;1.00
3660;DHT22;1846;51.482;7.224;2023-03-01T15:33:31;7.20;1.00
3660;DHT22;1846;51.482;7.224;2023-03-01T15:36:00;7.10;1.00
3660;DHT22;1846;51.482;7.224;2023-03-01T15:38:34;7.10;1.00
3660;DHT22;1846;51.482;7.224;2023-03-01T15:41:05;6.90;1.00
3660;DHT22;1846;51.482;7.224;2023-03-01T15:43:44;6.90;1.00
3660;DHT22;1846;51.482;7.224;2023-03-01T15:46:21;6.90;1.00
3660;DHT22;1846;51.482;7.224;2023-03-01T15:48:52;6.90;1.00
3660;DHT22;1846;51.482;7.224;2023-03-01T15:51:26;6.90;1.00
3660;DHT22;1846;51.482;7.224;2023-03-01T15:53:56;7.00;1.00
3660;DHT22;1846;51.482;7.224;2023-03-01T15:56:25;6.90;1.00
3660;DHT22;1846;51.482;7.224;2023-03-01T15:58:52;6.90;1.00
3660;DHT22;1846;51.482;7.224;2023-03-01T16:01:18;6.80;1.00
3660;DHT22;1846;51.482;7.224;2023-03-01T16:03:46;6.90;1.00
3660;DHT22;1846;51.482;7.224;2023-03-01T16:06:13;6.90;1.00
3660;DHT22;1846;51.482;7.224;2023-03-01T16:08:40;6.90;1.00
3660;DHT22;1846;51.482;7.224;2023-03-01T16:11:20;6.80;1.00
3660;DHT22;1846;51.482;7.224;2023-03-01T16:13:47;6.90;1.00
3660;DHT22;1846;51.482;7.224;2023-03-01T16:16:15;6.90;1.00
3660;DHT22;1846;51.482;7.224;2023-03-01T16:18:43;6.90;1.00
3660;DHT22;1846;51.482;7.224;2023-03-01T16:21:16;6.90;1.00
3660;DHT22;1846;51.482;7.224;2023-03-01T16:23:44;7.00;1.00
3660;DHT22;1846;51.482;7.224;2023-03-01T16:26:14;6.90;1.00
3660;DHT22;1846;51.482;7.224;2023-03-01T16:28:41;6.70;1.00
3660;DHT22;1846;51.482;7.224;2023-03-01T16:31:08;6.70;1.00
3660;DHT22;1846;51.482;7.224;2023-03-01T16:33:36;6.70;1.00
3660;DHT22;1846;51.482;7.224;2023-03-01T16:36:07;6.60;1.00
3660;DHT22;1846;51.482;7.224;2023-03-01T16:38:34;6.50;1.00
3660;DHT22;1846;51.482;7.224;2023-03-01T16:41:01;6.50;1.00
3660;DHT22;1846;51.482;7.224;2023-03-01T16:43:30;6.50;1.00
3660;DHT22;1846;51.482;7.224;2023-03-01T16:45:57;6.50;1.00
3660;DHT22;1846;51.482;7.224;2023-03-01T16:48:25;6.50;1.00
3660;DHT22;1846;51.482;7.224;2023-03-01T16:50:56;6.40;1.00
3660;DHT22;1846;51.482;7.224;2023-03-01T16:53:23;6.40;1.00
3660;DHT22;1846;51.482;7.224;2023-03-01T16:55:53;6.40;1.00
3660;DHT22;1846;51.482;7.224;2023-03-01T16:58:20;6.40;1.00
3660;DHT22;1846;51.482;7.224;2023-03-01T17:00:51;6.40;1.00
3660;DHT22;1846;51.482;7.224;2023-03-01T17:03:19;6.30;1.00
3660;DHT22;1846;51.482;7.224;2023-03-01T17:05:46;6.20;1.00
3660;DHT22;1846;51.482;7.224;2023-03-01T17:08:13;6.20;1.00
3660;DHT22;1846;51.482;7.224;2023-03-01T17:10:39;6.10;1.00
3660;DHT22;1846;51.482;7.224;2023-03-01T17:13:07;6.00;1.00
3660;DHT22;1846;51.482;7.224;2023-03-01T17:15:35;6.00;1.00
3660;DHT22;1846;51.482;7.224;2023-03-01T17:18:05;5.90;1.00
3660;DHT22;1846;51.482;7.224;2023-03-01T17:20:32;5.90;1.00
3660;DHT22;1846;51.482;7.224;2023-03-01T17:22:59;5.80;1.00
3660;DHT22;1846;51.482;7.224;2023-03-01T17:25:26;5.80;1.00
3660;DHT22;1846;51.482;7.224;2023-03-01T17:27:53;5.80;1.00
3660;DHT22;1846;51.482;7.224;2023-03-01T17:30:20;5.80;1.00
3660;DHT22;1846;51.482;7.224;2023-03-01T17:32:47;5.70;1.00
3660;DHT22;1846;51.482;7.224;2023-03-01T17:35:15;5.70;1.00
3660;DHT22;1846;51.482;7.224;2023-03-01T17:37:42;5.50;1.00
3660;DHT22;1846;51.482;7.224;2023-03-01T17:40:11;5.50;1.00
3660;DHT22;1846;51.482;7.224;2023-03-01T17:42:38;5.60;1.00